createdAt,value
2022-10-19T00:00:25.629Z,67.02
2022-10-19T00:01:25.625Z,67.02
2022-10-19T00:02:25.770Z,67.02
2022-10-19T00:03:25.777Z,67.12
2022-10-19T00:04:25.867Z,67.12
2022-10-19T00:05:25.961Z,67.22
2022-10-19T00:06:26.264Z,67.22
2022-10-19T00:07:26.078Z,67.12
2022-10-19T00:08:26.158Z,67.12
2022-10-19T00:09:26.238Z,67.12
2022-10-19T00:10:26.341Z,67.12
2022-10-19T00:11:26.416Z,67.12
2022-10-19T00:12:26.498Z,67.12
2022-10-19T00:13:26.600Z,67.02
2022-10-19T00:14:26.674Z,67.02
2022-10-19T00:15:26.758Z,67.02
2022-10-19T00:16:26.873Z,67.02
2022-10-19T00:17:26.916Z,67.02
2022-10-19T00:18:26.976Z,66.92
2022-10-19T00:19:27.059Z,66.82
2022-10-19T00:20:27.150Z,66.82
2022-10-19T00:21:27.227Z,66.82
2022-10-19T00:22:27.317Z,66.72
2022-10-19T00:23:27.385Z,66.82
2022-10-19T00:24:27.460Z,66.82
2022-10-19T00:25:27.553Z,66.82
2022-10-19T00:26:27.630Z,66.82
2022-10-19T00:27:27.785Z,66.82
2022-10-19T00:28:27.829Z,66.82
2022-10-19T00:29:27.852Z,66.72
2022-10-19T00:30:27.989Z,66.72
2022-10-19T00:31:28.030Z,66.75
2022-10-19T00:32:28.122Z,66.64
2022-10-19T00:33:28.201Z,66.64
2022-10-19T00:34:28.276Z,66.75
2022-10-19T00:35:28.364Z,66.75
2022-10-19T00:36:28.444Z,66.75
2022-10-19T00:37:28.521Z,66.75
2022-10-19T00:38:28.608Z,66.75
2022-10-19T00:39:28.676Z,66.75
2022-10-19T00:40:28.794Z,66.75
2022-10-19T00:41:28.840Z,66.75
2022-10-19T00:42:28.921Z,66.75
2022-10-19T00:43:29.002Z,66.75
2022-10-19T00:44:29.072Z,66.75
2022-10-19T00:45:29.189Z,66.64
2022-10-19T00:46:29.239Z,66.64
2022-10-19T00:47:29.288Z,66.64
2022-10-19T00:48:29.369Z,66.64
2022-10-19T00:49:29.441Z,66.75
2022-10-19T00:50:29.536Z,66.75
2022-10-19T00:51:29.613Z,66.85
2022-10-19T00:52:29.687Z,66.85
2022-10-19T00:53:29.766Z,66.85
2022-10-19T00:54:29.852Z,66.75
2022-10-19T00:55:29.965Z,66.75
2022-10-19T00:56:30.000Z,66.75
2022-10-19T00:57:30.118Z,66.75
2022-10-19T00:58:30.146Z,66.75
2022-10-19T00:59:30.230Z,66.75
2022-10-19T01:00:30.312Z,66.75
2022-10-19T01:01:30.422Z,66.75
2022-10-19T01:02:30.626Z,66.64
2022-10-19T01:03:30.526Z,66.64
2022-10-19T01:04:30.631Z,66.64
2022-10-19T01:05:30.682Z,66.64
2022-10-19T01:06:30.759Z,66.64
2022-10-19T01:07:31.003Z,66.55
2022-10-19T01:08:30.965Z,66.64
2022-10-19T01:09:31.013Z,66.67
2022-10-19T01:10:31.133Z,66.55
2022-10-19T01:11:31.189Z,66.58
2022-10-19T01:12:31.276Z,66.58
2022-10-19T01:13:31.357Z,66.47
2022-10-19T01:14:31.432Z,66.38
2022-10-19T01:15:31.530Z,66.38
2022-10-19T01:16:31.611Z,66.38
2022-10-19T01:17:31.996Z,66.38
2022-10-19T01:18:31.753Z,66.47
2022-10-19T01:19:31.826Z,66.47
2022-10-19T01:20:31.924Z,66.47
2022-10-19T01:21:32.014Z,66.47
2022-10-19T01:22:32.092Z,66.47
2022-10-19T01:23:32.160Z,66.47
2022-10-19T01:24:34.808Z,66.38
2022-10-19T01:25:32.330Z,66.27
2022-10-19T01:26:32.410Z,66.27
2022-10-19T01:27:32.828Z,66.27
2022-10-19T01:28:32.611Z,66.17
2022-10-19T01:29:32.642Z,66.17
2022-10-19T01:30:32.737Z,65.97
2022-10-19T01:31:32.823Z,65.90
2022-10-19T01:32:32.903Z,65.80
2022-10-19T01:33:32.978Z,65.90
2022-10-19T01:34:33.062Z,65.90
2022-10-19T01:35:33.154Z,65.90
2022-10-19T01:36:33.240Z,65.90
2022-10-19T01:37:33.676Z,65.90
2022-10-19T01:38:33.391Z,65.90
2022-10-19T01:39:33.484Z,65.90
2022-10-19T01:40:33.575Z,65.90
2022-10-19T01:41:33.664Z,65.90
2022-10-19T01:42:33.749Z,66.00
2022-10-19T01:43:33.830Z,66.10
2022-10-19T01:44:33.905Z,66.13
2022-10-19T01:45:34.001Z,66.13
2022-10-19T01:46:34.130Z,66.03
2022-10-19T01:47:34.444Z,65.93
2022-10-19T01:48:34.234Z,65.93
2022-10-19T01:49:34.300Z,66.03
2022-10-19T01:50:34.437Z,66.03
2022-10-19T01:51:34.478Z,66.03
2022-10-19T01:52:34.759Z,66.03
2022-10-19T01:53:34.672Z,66.03
2022-10-19T01:54:34.723Z,66.13
2022-10-19T01:55:34.817Z,66.13
2022-10-19T01:56:34.894Z,66.03
2022-10-19T01:57:34.969Z,66.03
2022-10-19T01:58:35.041Z,66.03
2022-10-19T01:59:35.117Z,66.03
2022-10-19T02:00:35.220Z,66.03
2022-10-19T02:01:35.271Z,66.03
2022-10-19T02:02:35.681Z,66.13
2022-10-19T02:03:35.471Z,66.13
2022-10-19T02:04:35.546Z,66.24
2022-10-19T02:05:35.646Z,66.13
2022-10-19T02:06:35.690Z,66.13
2022-10-19T02:07:35.793Z,66.13
2022-10-19T02:08:35.835Z,66.13
2022-10-19T02:09:35.918Z,66.13
2022-10-19T02:10:36.021Z,66.13
2022-10-19T02:11:36.093Z,66.13
2022-10-19T02:12:36.570Z,66.03
2022-10-19T02:13:36.256Z,66.13
2022-10-19T02:14:36.337Z,66.03
2022-10-19T02:15:36.446Z,66.03
2022-10-19T02:16:36.539Z,65.93
2022-10-19T02:17:36.584Z,65.83
2022-10-19T02:18:36.659Z,65.83
2022-10-19T02:19:36.738Z,65.86
2022-10-19T02:20:36.839Z,65.76
2022-10-19T02:21:36.879Z,65.76
2022-10-19T02:22:37.066Z,65.76
2022-10-19T02:23:37.053Z,65.66
2022-10-19T02:24:37.131Z,65.76
2022-10-19T02:25:37.289Z,65.86
2022-10-19T02:26:37.304Z,65.86
2022-10-19T02:27:37.375Z,65.96
2022-10-19T02:28:37.470Z,65.96
2022-10-19T02:29:37.549Z,65.96
2022-10-19T02:30:37.642Z,65.96
2022-10-19T02:31:39.224Z,65.86
2022-10-19T02:32:37.795Z,65.99
2022-10-19T02:33:37.870Z,65.99
2022-10-19T02:34:37.984Z,65.89
2022-10-19T02:35:38.070Z,65.89
2022-10-19T02:36:38.156Z,65.89
2022-10-19T02:37:38.233Z,65.99
2022-10-19T02:38:38.316Z,65.99
2022-10-19T02:39:38.438Z,66.09
2022-10-19T02:40:38.498Z,66.19
2022-10-19T02:41:38.535Z,66.19
2022-10-19T02:42:38.613Z,66.19
2022-10-19T02:43:38.695Z,66.30
2022-10-19T02:44:38.805Z,66.30
2022-10-19T02:45:38.859Z,66.30
2022-10-19T02:47:39.043Z,66.19
2022-10-19T02:48:39.114Z,66.19
2022-10-19T02:49:39.192Z,65.89
2022-10-19T02:50:39.295Z,65.99
2022-10-19T02:51:39.369Z,65.89
2022-10-19T02:54:21.699Z,65.82
2022-10-19T02:55:22.779Z,65.82
2022-10-19T02:56:22.808Z,65.95
2022-10-19T02:57:22.903Z,65.95
2022-10-19T02:58:22.987Z,66.05
2022-10-19T02:59:23.004Z,66.05
2022-10-19T03:00:23.104Z,65.95
2022-10-19T03:01:23.210Z,66.05
2022-10-19T03:02:23.254Z,66.05
2022-10-19T03:03:23.335Z,66.05
2022-10-19T03:04:23.412Z,66.16
2022-10-19T03:05:23.489Z,66.16
2022-10-19T03:06:23.587Z,66.26
2022-10-19T03:07:23.670Z,66.26
2022-10-19T03:08:23.755Z,66.26
2022-10-19T03:09:23.836Z,66.26
2022-10-19T03:10:23.930Z,66.26
2022-10-19T03:11:24.027Z,66.16
2022-10-19T03:12:24.115Z,66.05
2022-10-19T03:13:24.192Z,65.95
2022-10-19T03:14:24.280Z,66.05
2022-10-19T03:15:24.360Z,66.05
2022-10-19T03:16:24.468Z,66.16
2022-10-19T03:17:24.549Z,66.16
2022-10-19T03:18:24.665Z,66.26
2022-10-19T03:19:24.709Z,66.26
2022-10-19T03:20:24.792Z,66.26
2022-10-19T03:21:24.887Z,66.26
2022-10-19T03:22:24.965Z,66.16
2022-10-19T03:23:25.045Z,66.05
2022-10-19T03:24:25.128Z,65.95
2022-10-19T03:25:25.212Z,65.95
2022-10-19T03:26:25.320Z,65.95
2022-10-19T03:27:25.367Z,65.95
2022-10-19T03:28:25.601Z,65.95
2022-10-19T03:29:25.510Z,65.95
2022-10-19T03:30:25.591Z,65.95
2022-10-19T03:31:25.688Z,65.95
2022-10-19T03:32:25.733Z,65.85
2022-10-19T03:34:25.911Z,65.75
2022-10-19T03:35:26.002Z,65.65
2022-10-19T03:36:26.098Z,65.48
2022-10-19T03:37:26.182Z,65.48
2022-10-19T03:38:26.276Z,65.48
2022-10-19T03:39:26.370Z,65.48
2022-10-19T03:40:26.474Z,65.68
2022-10-19T03:41:26.552Z,65.78
2022-10-19T03:42:26.600Z,65.88
2022-10-19T03:43:26.689Z,65.88
2022-10-19T03:44:26.779Z,65.91
2022-10-19T03:45:26.839Z,66.02
2022-10-19T03:46:26.942Z,66.02
2022-10-19T03:47:27.013Z,66.12
2022-10-19T03:48:27.061Z,66.22
2022-10-19T03:49:27.145Z,66.22
2022-10-19T03:50:27.235Z,66.32
2022-10-19T03:51:27.332Z,66.29
2022-10-19T03:52:27.415Z,66.39
2022-10-19T03:53:27.503Z,66.29
2022-10-19T03:54:27.719Z,66.39
2022-10-19T03:55:27.647Z,66.29
2022-10-19T03:56:27.753Z,66.08
2022-10-19T03:57:27.844Z,66.08
2022-10-19T03:58:27.898Z,66.08
2022-10-19T03:59:27.966Z,66.19
2022-10-19T04:00:28.049Z,66.29
2022-10-19T04:01:28.198Z,66.29
2022-10-19T04:02:28.206Z,66.08
2022-10-19T04:03:28.322Z,66.08
2022-10-19T04:04:28.360Z,65.99
2022-10-19T04:05:28.434Z,65.99
2022-10-19T04:06:28.535Z,65.88
2022-10-19T04:07:28.614Z,65.91
2022-10-19T04:08:28.695Z,65.91
2022-10-19T04:09:28.787Z,65.91
2022-10-19T04:10:28.854Z,65.91
2022-10-19T04:11:28.957Z,66.02
2022-10-19T04:12:29.040Z,66.02
2022-10-19T04:13:29.124Z,66.02
2022-10-19T04:14:33.042Z,65.91
2022-10-19T04:15:29.301Z,65.81
2022-10-19T04:16:29.393Z,65.81
2022-10-19T04:17:29.495Z,65.71
2022-10-19T04:18:29.585Z,65.71
2022-10-19T04:19:29.627Z,65.71
2022-10-19T04:20:29.719Z,65.81
2022-10-19T04:21:29.817Z,65.81
2022-10-19T04:22:29.894Z,65.71
2022-10-19T04:23:29.974Z,65.61
2022-10-19T04:24:30.070Z,65.71
2022-10-19T04:25:30.151Z,65.71
2022-10-19T04:26:30.250Z,65.61
2022-10-19T04:27:30.354Z,65.41
2022-10-19T04:28:30.528Z,65.41
2022-10-19T04:29:30.915Z,65.51
2022-10-19T04:30:30.582Z,65.51
2022-10-19T04:31:30.701Z,65.61
2022-10-19T04:32:30.743Z,65.61
2022-10-19T04:33:30.840Z,65.61
2022-10-19T04:34:30.932Z,65.51
2022-10-19T04:35:31.034Z,65.51
2022-10-19T04:36:31.272Z,65.51
2022-10-19T04:37:31.428Z,65.41
2022-10-19T04:38:31.280Z,65.41
2022-10-19T04:39:31.372Z,65.51
2022-10-19T04:40:31.450Z,65.61
2022-10-19T04:41:31.553Z,65.61
2022-10-19T04:42:31.601Z,65.71
2022-10-19T04:43:31.707Z,65.81
2022-10-19T04:44:31.767Z,65.81
2022-10-19T04:45:31.861Z,65.91
2022-10-19T04:46:31.967Z,65.91
2022-10-19T04:47:32.389Z,65.91
2022-10-19T04:48:32.104Z,65.91
2022-10-19T04:49:32.204Z,65.91
2022-10-19T04:50:32.284Z,66.02
2022-10-19T04:51:32.390Z,66.02
2022-10-19T04:52:32.468Z,66.02
2022-10-19T04:53:32.522Z,65.91
2022-10-19T04:54:32.604Z,65.81
2022-10-19T04:55:32.694Z,65.81
2022-10-19T04:56:32.791Z,65.71
2022-10-19T04:57:33.230Z,65.71
2022-10-19T04:58:32.895Z,65.71
2022-10-19T04:59:32.966Z,65.81
2022-10-19T05:00:33.111Z,65.91
2022-10-19T05:01:33.135Z,65.91
2022-10-19T05:02:33.215Z,65.91
2022-10-19T05:03:33.304Z,65.81
2022-10-19T05:04:33.381Z,65.91
2022-10-19T05:05:33.470Z,65.91
2022-10-19T05:06:33.573Z,65.91
2022-10-19T05:07:34.017Z,65.91
2022-10-19T05:08:33.766Z,65.91
2022-10-19T05:09:33.874Z,65.91
2022-10-19T05:10:33.933Z,65.91
2022-10-19T05:11:34.036Z,65.91
2022-10-19T05:12:34.119Z,65.81
2022-10-19T05:13:34.189Z,65.94
2022-10-19T05:14:35.807Z,65.94
2022-10-19T05:15:34.341Z,65.94
2022-10-19T05:16:34.452Z,65.94
2022-10-19T05:17:34.814Z,65.84
2022-10-19T05:18:34.605Z,65.84
2022-10-19T05:19:34.697Z,65.94
2022-10-19T05:20:34.771Z,65.94
2022-10-19T05:21:34.955Z,66.05
2022-10-19T05:22:34.942Z,66.15
2022-10-19T05:23:35.048Z,66.15
2022-10-19T05:24:35.117Z,66.25
2022-10-19T05:25:35.171Z,66.25
2022-10-19T05:26:35.265Z,66.35
2022-10-19T05:27:35.671Z,66.35
2022-10-19T05:28:35.513Z,66.35
2022-10-19T05:29:35.521Z,66.15
2022-10-19T05:30:35.610Z,66.05
2022-10-19T05:31:35.715Z,65.94
2022-10-19T05:32:35.804Z,65.94
2022-10-19T05:33:35.884Z,65.94
2022-10-19T05:34:35.973Z,65.94
2022-10-19T05:35:36.058Z,66.05
2022-10-19T05:36:36.152Z,65.94
2022-10-19T05:37:36.717Z,65.94
2022-10-19T05:38:36.324Z,65.94
2022-10-19T05:39:36.411Z,65.94
2022-10-19T05:40:36.506Z,65.84
2022-10-19T05:41:36.576Z,65.84
2022-10-19T05:42:36.650Z,65.84
2022-10-19T05:43:36.711Z,65.84
2022-10-19T05:45:36.895Z,65.84
2022-10-19T05:46:37.022Z,65.94
2022-10-19T05:47:37.389Z,65.84
2022-10-19T05:48:37.137Z,65.84
2022-10-19T05:49:37.227Z,65.84
2022-10-19T05:50:37.302Z,65.84
2022-10-19T05:51:37.447Z,65.74
2022-10-19T05:52:37.469Z,65.77
2022-10-19T05:54:37.644Z,65.67
2022-10-19T05:55:37.743Z,65.77
2022-10-19T05:56:37.868Z,65.67
2022-10-19T05:57:37.931Z,65.67
2022-10-19T05:58:38.039Z,65.67
2022-10-19T05:59:38.077Z,65.67
2022-10-19T06:00:38.153Z,65.67
2022-10-19T06:01:38.466Z,65.67
2022-10-19T06:02:38.338Z,65.77
2022-10-19T06:03:38.421Z,65.77
2022-10-19T06:04:38.517Z,65.77
2022-10-19T06:05:38.625Z,65.88
2022-10-19T06:06:38.724Z,66.08
2022-10-19T06:07:38.786Z,66.08
2022-10-19T06:08:38.829Z,66.11
2022-10-19T06:09:38.915Z,66.21
2022-10-19T06:10:39.063Z,66.31
2022-10-19T06:11:39.109Z,66.41
2022-10-19T06:12:39.195Z,66.31
2022-10-19T06:13:39.297Z,66.41
2022-10-19T06:14:39.407Z,66.52
2022-10-19T06:15:39.424Z,66.52
2022-10-19T06:16:39.518Z,66.52
2022-10-19T06:17:39.599Z,66.41
2022-10-19T06:18:39.675Z,66.31
2022-10-19T06:19:39.757Z,66.21
2022-10-19T06:20:39.845Z,66.31
2022-10-19T06:21:41.999Z,66.31
2022-10-19T06:22:40.006Z,66.21
2022-10-19T06:23:40.097Z,66.21
2022-10-19T06:24:40.200Z,66.11
2022-10-19T06:25:40.260Z,66.00
2022-10-19T06:26:40.325Z,65.94
2022-10-19T06:27:40.478Z,65.83
2022-10-19T06:28:40.534Z,65.83
2022-10-19T06:29:40.591Z,65.83
2022-10-19T06:30:40.744Z,65.83
2022-10-19T06:31:40.740Z,65.94
2022-10-19T06:32:40.808Z,66.07
2022-10-19T06:33:40.987Z,66.17
2022-10-19T06:34:40.961Z,66.27
2022-10-19T06:35:41.068Z,66.47
2022-10-19T06:36:41.132Z,66.47
2022-10-19T06:37:41.236Z,66.58
2022-10-19T06:38:41.302Z,66.68
2022-10-19T06:39:41.422Z,66.78
2022-10-19T06:40:41.434Z,66.88
2022-10-19T06:41:41.546Z,66.88
2022-10-19T06:42:41.586Z,66.96
2022-10-19T06:43:41.684Z,66.96
2022-10-19T06:44:41.768Z,66.96
2022-10-19T06:54:22.001Z,67.90
2022-10-19T06:55:23.049Z,68.10
2022-10-19T06:56:23.028Z,68.21
2022-10-19T06:57:23.120Z,68.31
2022-10-19T06:58:23.176Z,68.31
2022-10-19T06:59:23.228Z,68.31
2022-10-19T07:00:23.310Z,68.41
2022-10-19T07:01:23.471Z,68.38
2022-10-19T07:02:23.515Z,68.38
2022-10-19T07:03:23.671Z,68.48
2022-10-19T07:04:23.648Z,68.58
2022-10-19T07:05:23.813Z,68.68
2022-10-19T07:06:23.779Z,68.79
2022-10-19T07:07:23.925Z,68.88
2022-10-19T07:08:23.984Z,68.99
2022-10-19T07:09:24.018Z,69.09
2022-10-19T07:10:24.188Z,69.19
2022-10-19T07:11:24.197Z,69.29
2022-10-19T07:12:24.339Z,69.40
2022-10-19T07:13:24.373Z,69.49
2022-10-19T07:14:24.539Z,69.60
2022-10-19T07:15:24.577Z,69.67
2022-10-19T07:16:24.647Z,69.77
2022-10-19T07:17:24.715Z,69.87
2022-10-19T07:18:24.791Z,69.97
2022-10-19T07:19:24.857Z,70.07
2022-10-19T07:20:24.917Z,70.18
2022-10-19T07:21:25.021Z,70.18
2022-10-19T07:22:28.110Z,70.28
2022-10-19T07:23:25.158Z,70.28
2022-10-19T07:24:25.207Z,70.38
2022-10-19T07:25:25.308Z,70.38
2022-10-19T07:26:25.400Z,70.48
2022-10-19T07:27:25.526Z,70.48
2022-10-19T07:28:25.868Z,70.55
2022-10-19T07:29:25.657Z,70.55
2022-10-19T07:30:25.713Z,70.65
2022-10-19T07:31:25.791Z,70.65
2022-10-19T07:32:25.897Z,70.65
2022-10-19T07:33:25.937Z,70.75
2022-10-19T07:34:28.903Z,70.75
2022-10-19T07:35:26.115Z,70.75
2022-10-19T07:36:26.186Z,70.86
2022-10-19T07:37:26.298Z,70.96
2022-10-19T07:38:26.356Z,71.06
2022-10-19T07:39:26.418Z,71.06
2022-10-19T07:40:26.500Z,71.16
2022-10-19T07:41:26.609Z,71.12
2022-10-19T07:42:26.679Z,71.23
2022-10-19T07:43:26.720Z,71.23
2022-10-19T07:44:26.831Z,71.33
2022-10-19T07:45:26.872Z,71.43
2022-10-19T07:46:26.971Z,71.43
2022-10-19T07:47:27.085Z,71.73
2022-10-19T07:48:27.132Z,71.73
2022-10-19T07:49:27.199Z,71.84
2022-10-19T07:50:27.315Z,71.73
2022-10-19T08:53:18.967Z,78.21
2022-10-19T08:54:19.991Z,78.41
2022-10-19T08:55:20.757Z,78.82
2022-10-19T08:56:38.826Z,79.13
2022-10-19T08:57:20.185Z,79.09
2022-10-19T08:58:20.274Z,78.89
2022-10-19T08:59:20.369Z,78.68
2022-10-19T09:00:20.580Z,78.64
2022-10-19T09:01:20.533Z,78.64
2022-10-19T09:02:20.652Z,78.64
2022-10-19T09:03:31.907Z,78.71
2022-10-19T09:04:20.943Z,79.12
2022-10-19T09:05:20.881Z,79.22
2022-10-19T09:06:20.970Z,79.90
2022-10-19T09:07:21.011Z,79.79
2022-10-19T09:08:21.100Z,79.38
2022-10-19T09:09:21.219Z,79.28
2022-10-19T09:10:21.284Z,79.18
2022-10-19T09:11:21.363Z,78.84
2022-10-19T09:12:21.405Z,78.64
2022-10-19T09:13:21.491Z,78.53
2022-10-19T09:14:21.562Z,78.64
2022-10-19T09:15:21.660Z,78.53
2022-10-19T09:16:21.728Z,78.53
2022-10-19T09:17:21.805Z,78.64
2022-10-19T09:18:21.881Z,78.60
2022-10-19T09:19:21.991Z,78.50
2022-10-19T09:20:22.036Z,78.50
2022-10-19T09:21:30.147Z,78.80
2022-10-19T09:22:22.215Z,78.60
2022-10-19T09:23:22.318Z,78.30
2022-10-19T09:24:22.388Z,78.30
2022-10-19T09:25:22.431Z,78.36
2022-10-19T09:26:22.564Z,78.46
2022-10-19T09:27:22.624Z,78.36
2022-10-19T09:28:25.666Z,78.46
2022-10-19T09:29:22.796Z,78.66
2022-10-19T09:30:22.920Z,78.66
2022-10-19T09:31:23.012Z,78.66
2022-10-19T09:32:23.076Z,78.46
2022-10-19T09:33:23.133Z,78.26
2022-10-19T09:34:23.208Z,78.06
2022-10-19T09:35:23.333Z,77.82
2022-10-19T09:36:39.320Z,77.92
2022-10-19T09:37:26.251Z,77.92
2022-10-19T09:38:23.528Z,78.12
2022-10-19T09:39:26.991Z,78.22
2022-10-19T09:40:23.720Z,78.12
2022-10-19T09:41:23.777Z,78.22
2022-10-19T09:42:23.861Z,78.33
2022-10-19T09:43:23.955Z,78.22
2022-10-19T09:44:24.050Z,78.33
2022-10-19T09:45:24.119Z,78.08
2022-10-19T09:46:24.292Z,78.39
2022-10-19T09:47:24.273Z,78.39
2022-10-19T09:48:24.353Z,78.19
2022-10-19T09:49:24.447Z,78.39
2022-10-19T09:50:24.528Z,78.49
2022-10-19T09:51:24.605Z,78.49
2022-10-19T09:52:24.736Z,78.49
2022-10-19T09:53:24.759Z,78.35
2022-10-19T09:54:24.861Z,78.15
2022-10-19T09:55:24.996Z,78.05
2022-10-19T09:56:25.072Z,78.05
2022-10-19T09:57:25.113Z,78.05
2022-10-19T09:58:27.023Z,77.95
2022-10-19T09:59:25.289Z,77.84
2022-10-19T10:00:25.345Z,77.75
2022-10-19T10:01:25.489Z,77.75
2022-10-19T10:02:25.567Z,77.75
2022-10-19T10:03:25.573Z,77.84
2022-10-19T10:04:25.659Z,77.75
2022-10-19T10:05:25.739Z,77.81
2022-10-19T10:06:25.869Z,77.61
2022-10-19T10:07:25.934Z,77.61
2022-10-19T10:08:26.055Z,77.50
2022-10-19T10:09:26.135Z,77.61
2022-10-19T10:10:28.233Z,77.61
2022-10-19T10:11:26.275Z,77.50
2022-10-19T10:12:26.320Z,77.71
2022-10-19T10:13:26.392Z,77.81
2022-10-19T10:14:26.470Z,77.71
2022-10-19T10:15:26.573Z,77.67
2022-10-19T10:16:26.623Z,77.87
2022-10-19T10:17:26.724Z,77.77
2022-10-19T10:18:26.788Z,77.87
2022-10-19T10:19:27.358Z,78.08
2022-10-19T10:20:26.964Z,78.28
2022-10-19T10:21:27.057Z,77.97
2022-10-19T10:22:27.138Z,77.77
2022-10-19T10:23:27.213Z,77.87
2022-10-19T10:24:27.316Z,77.94
2022-10-19T10:25:27.390Z,77.94
2022-10-19T10:26:27.543Z,77.94
2022-10-19T10:27:27.542Z,77.94
2022-10-19T10:28:27.640Z,78.04
2022-10-19T10:29:27.707Z,78.24
2022-10-19T10:30:27.824Z,78.24
2022-10-19T10:31:27.880Z,78.10
2022-10-19T10:32:27.985Z,78.10
2022-10-19T10:33:40.666Z,77.90
2022-10-19T10:34:37.490Z,78.00
2022-10-19T10:35:28.202Z,78.00
2022-10-19T10:36:28.309Z,78.00
2022-10-19T10:37:28.347Z,77.80
2022-10-19T10:38:28.505Z,77.70
2022-10-19T10:39:28.523Z,77.56
2022-10-19T10:40:28.605Z,77.46
2022-10-19T10:41:28.751Z,77.36
2022-10-19T10:42:28.755Z,77.26
2022-10-19T10:43:28.851Z,77.26
2022-10-19T10:44:28.921Z,77.56
2022-10-19T10:45:29.019Z,77.76
2022-10-19T10:46:29.120Z,77.86
2022-10-19T10:47:29.183Z,78.27
2022-10-19T10:48:29.282Z,78.33
2022-10-19T10:49:29.348Z,78.13
2022-10-19T10:50:29.449Z,77.73
2022-10-19T10:51:29.551Z,77.42
2022-10-19T10:52:29.589Z,77.19
2022-10-19T10:53:29.668Z,76.88
2022-10-19T10:54:29.773Z,77.08
2022-10-19T10:55:29.862Z,77.08
2022-10-19T10:56:30.120Z,77.08
2022-10-19T10:57:30.045Z,76.98
2022-10-19T10:58:30.482Z,76.98
2022-10-19T10:59:30.187Z,77.49
2022-10-19T11:00:30.267Z,77.49
2022-10-19T11:01:30.458Z,77.59
2022-10-19T11:02:30.443Z,77.66
2022-10-19T11:03:30.521Z,77.45
2022-10-19T11:04:30.606Z,77.25
2022-10-19T11:05:30.722Z,77.15
2022-10-19T11:06:30.808Z,76.95
2022-10-19T11:07:30.880Z,76.84
2022-10-19T11:08:30.964Z,76.75
2022-10-19T11:09:31.211Z,76.54
2022-10-19T11:10:31.109Z,76.54
2022-10-19T11:11:31.217Z,76.64
2022-10-19T11:12:34.362Z,76.64
2022-10-19T11:13:31.329Z,76.81
2022-10-19T11:14:31.416Z,76.71
2022-10-19T11:15:31.494Z,76.61
2022-10-19T11:16:31.591Z,76.71
2022-10-19T11:17:31.849Z,76.91
2022-10-19T11:18:31.728Z,77.01
2022-10-19T11:19:31.822Z,76.91
2022-10-19T11:20:31.918Z,76.61
2022-10-19T11:21:32.043Z,76.51
2022-10-19T11:22:32.071Z,76.51
2022-10-19T11:23:32.181Z,76.40
2022-10-19T11:24:32.255Z,76.47
2022-10-19T11:25:32.342Z,76.27
2022-10-19T11:26:32.458Z,76.27
2022-10-19T11:27:32.898Z,76.27
2022-10-19T11:28:32.634Z,76.07
2022-10-19T11:29:32.686Z,75.87
2022-10-19T11:30:32.782Z,75.96
2022-10-19T11:31:32.888Z,76.07
2022-10-19T11:32:33.252Z,76.07
2022-10-19T11:33:33.066Z,75.96
2022-10-19T11:34:33.105Z,75.87
2022-10-19T11:35:33.183Z,75.76
2022-10-19T11:36:33.287Z,76.07
2022-10-19T11:37:33.823Z,76.07
2022-10-19T11:38:33.530Z,76.17
2022-10-19T11:39:33.555Z,76.17
2022-10-19T11:40:33.628Z,76.27
2022-10-19T11:41:33.726Z,76.37
2022-10-19T11:42:33.863Z,76.43
2022-10-19T11:43:33.871Z,76.64
2022-10-19T11:44:33.956Z,76.54
2022-10-19T11:45:34.048Z,76.34
2022-10-19T11:46:34.223Z,76.14
2022-10-19T11:47:34.524Z,76.03
2022-10-19T11:48:34.291Z,75.93
2022-10-19T11:49:34.383Z,75.73
2022-10-19T11:50:34.478Z,75.63
2022-10-19T11:51:34.610Z,75.53
2022-10-19T11:52:34.883Z,75.43
2022-10-19T11:53:34.726Z,75.43
2022-10-19T11:54:35.081Z,75.53
2022-10-19T11:57:13.888Z,75.43
2022-10-19T11:58:15.009Z,75.13
2022-10-19T11:59:14.971Z,75.23
2022-10-19T12:00:27.226Z,75.33
2022-10-19T12:01:15.130Z,75.63
2022-10-19T12:02:15.287Z,75.63
2022-10-19T12:03:15.311Z,75.63
2022-10-19T12:04:15.439Z,75.43
2022-10-19T12:05:15.471Z,75.13
2022-10-19T12:06:15.558Z,74.99
2022-10-19T12:07:15.657Z,74.99
2022-10-19T12:08:15.775Z,74.99
2022-10-19T12:09:15.864Z,75.19
2022-10-19T12:10:16.028Z,75.19
2022-10-19T12:11:15.982Z,75.49
2022-10-19T12:12:16.081Z,75.70
2022-10-19T12:13:16.167Z,75.59
2022-10-19T12:14:16.255Z,75.39
2022-10-19T12:15:16.334Z,74.89
2022-10-19T12:16:16.429Z,74.58
2022-10-19T12:17:16.534Z,74.69
2022-10-19T12:18:16.575Z,74.99
2022-10-19T12:19:16.678Z,74.69
2022-10-19T12:20:19.679Z,74.69
2022-10-19T12:21:16.811Z,74.69
2022-10-19T12:22:16.917Z,74.79
2022-10-19T12:23:16.946Z,74.45
2022-10-19T12:24:17.028Z,74.55
2022-10-19T12:25:17.102Z,74.45
2022-10-19T12:27:17.302Z,74.65
2022-10-19T12:28:17.350Z,73.85
2022-10-19T12:29:17.433Z,73.75
2022-10-19T12:30:17.505Z,73.75
2022-10-19T12:31:17.581Z,73.85
2022-10-19T12:32:17.679Z,73.85
2022-10-19T12:33:17.770Z,73.55
2022-10-19T12:34:17.854Z,73.55
2022-10-19T12:36:18.003Z,73.44
2022-10-19T12:37:18.126Z,73.44
2022-10-19T12:38:18.174Z,73.55
2022-10-19T12:39:18.250Z,73.65
2022-10-19T12:40:18.327Z,73.75
2022-10-19T12:41:18.425Z,74.15
2022-10-19T12:42:18.528Z,74.15
2022-10-19T12:43:18.552Z,73.95
2022-10-19T12:44:18.693Z,74.05
2022-10-19T12:45:18.711Z,74.05
2022-10-19T12:46:18.802Z,74.05
2022-10-19T12:47:18.952Z,73.95
2022-10-19T12:48:19.063Z,74.05
2022-10-19T12:49:19.079Z,74.05
2022-10-19T12:51:19.400Z,73.88
2022-10-19T12:52:19.336Z,73.88
2022-10-19T12:53:19.449Z,73.88
2022-10-19T12:54:19.482Z,73.98
2022-10-19T12:55:19.579Z,74.05
2022-10-19T12:56:19.622Z,74.08
2022-10-19T12:57:22.799Z,74.08
2022-10-19T12:58:19.782Z,74.08
2022-10-19T12:59:19.856Z,74.08
2022-10-19T13:00:19.953Z,74.08
2022-10-19T13:01:20.032Z,74.08
2022-10-19T13:02:20.199Z,73.98
2022-10-19T13:03:20.220Z,73.98
2022-10-19T13:04:20.298Z,73.98
2022-10-19T13:05:20.375Z,73.88
2022-10-19T13:06:20.463Z,73.78
2022-10-19T13:07:20.570Z,73.68
2022-10-19T13:08:20.667Z,73.68
2022-10-19T13:09:20.730Z,73.68
2022-10-19T13:10:20.817Z,73.68
2022-10-19T13:11:20.920Z,73.68
2022-10-19T13:12:23.546Z,73.78
2022-10-19T13:13:21.042Z,73.88
2022-10-19T13:14:21.134Z,73.98
2022-10-19T13:15:21.232Z,74.08
2022-10-19T13:16:21.324Z,74.08
2022-10-19T13:17:21.845Z,73.88
2022-10-19T13:18:21.503Z,73.88
2022-10-19T13:19:21.580Z,73.88
2022-10-19T13:20:21.693Z,73.98
2022-10-19T13:21:21.733Z,73.98
2022-10-19T13:22:21.856Z,73.98
2022-10-19T13:23:21.901Z,73.68
2022-10-19T13:24:21.980Z,73.68
2022-10-19T13:25:22.059Z,73.58
2022-10-19T13:26:22.167Z,73.58
2022-10-19T13:27:22.225Z,73.48
2022-10-19T13:28:22.315Z,73.48
2022-10-19T13:29:22.405Z,73.38
2022-10-19T13:30:22.486Z,73.38
2022-10-19T13:31:22.578Z,73.38
2022-10-19T13:32:22.698Z,73.48
2022-10-19T13:33:22.733Z,73.52
2022-10-19T13:34:22.829Z,73.52
2022-10-19T13:35:22.905Z,73.61
2022-10-19T13:36:22.981Z,73.72
2022-10-19T13:37:23.091Z,73.82
2022-10-19T13:38:23.155Z,73.72
2022-10-19T13:39:23.238Z,73.82
2022-10-19T13:40:24.680Z,73.82
2022-10-19T13:41:23.398Z,73.72
2022-10-19T13:42:23.497Z,73.82
2022-10-19T13:43:23.578Z,74.02
2022-10-19T13:44:23.654Z,73.82
2022-10-19T13:45:23.734Z,73.82
2022-10-19T13:46:23.835Z,73.72
2022-10-19T13:47:24.030Z,73.82
2022-10-19T13:48:24.001Z,73.72
2022-10-19T13:49:26.741Z,73.61
2022-10-19T13:50:24.167Z,73.52
2022-10-19T13:51:24.247Z,73.52
2022-10-19T14:00:53.595Z,74.99
2022-10-19T14:01:54.342Z,75.13
2022-10-19T14:02:55.062Z,75.30
2022-10-19T14:03:55.127Z,75.20
2022-10-19T14:04:54.467Z,75.20
2022-10-19T14:05:54.573Z,74.99
2022-10-19T14:06:54.754Z,74.99
2022-10-19T14:07:54.674Z,74.90
2022-10-19T14:08:54.927Z,74.69
2022-10-19T14:09:54.831Z,74.69
2022-10-19T14:11:01.190Z,74.79
2022-10-19T14:11:54.957Z,74.79
2022-10-19T14:12:55.117Z,74.69
2022-10-19T14:13:55.176Z,74.79
2022-10-19T14:14:55.181Z,74.79
2022-10-19T14:15:55.425Z,74.69
2022-10-19T14:16:57.240Z,74.49
2022-10-19T14:17:55.461Z,74.49
2022-10-19T14:18:55.490Z,74.29
2022-10-19T14:19:55.584Z,74.19
2022-10-19T14:20:55.687Z,74.19
2022-10-19T14:21:55.850Z,74.19
2022-10-19T14:22:55.958Z,74.19